This is the latest recevied weather packets stored in our database for station/object WA1TYB-13. If no packets are shown the sender has not sent any weather packets the latest 1 day(s).
| Time | Temp. | Humidity | Pressure | Rain* | Wind** | Luminosity | Snow |
|---|---|---|---|---|---|---|---|
| 1778033252 | 7.22° C | 42% | 1020.2 hPa | 0 mm | 3.58 m/s, 338° | 24 W/m² | - |
| 1778032950 | 7.22° C | 42% | 1020.2 hPa | 0 mm | 3.58 m/s, 336° | 29 W/m² | - |
| 1778032647 | 7.78° C | 42% | 1020 hPa | 0 mm | 2.68 m/s, 337° | 33 W/m² | - |
| 1778032344 | 7.22° C | 42% | 1020.4 hPa | 0 mm | 3.13 m/s, 336° | 42 W/m² | - |
| 1778032041 | 7.78° C | 41% | 1020.2 hPa | 0 mm | 3.58 m/s, 22° | 44 W/m² | - |
| 1778031737 | 7.78° C | 42% | 1020.3 hPa | 0 mm | 3.13 m/s, 308° | 53 W/m² | - |
| 1778031435 | 7.78° C | 43% | 1020.4 hPa | 0 mm | 3.13 m/s, 321° | 58 W/m² | - |
| 1778031132 | 7.78° C | 43% | 1020.2 hPa | 0 mm | 2.24 m/s, 346° | 86 W/m² | - |
| 1778030828 | 7.78° C | 42% | 1020.5 hPa | 0 mm | 1.79 m/s, 4° | 67 W/m² | - |
| 1778030525 | 7.22° C | 43% | 1020.3 hPa | 0 mm | 2.24 m/s, 304° | 84 W/m² | - |
| 1778030222 | 7.22° C | 40% | 1020.3 hPa | 0 mm | 1.79 m/s, 18° | 58 W/m² | - |
| 1778029918 | 7.78° C | 38% | 1020.3 hPa | 0 mm | 2.24 m/s, 47° | 46 W/m² | - |
| 1778029617 | 7.22° C | 40% | 1020.2 hPa | 0 mm | 1.79 m/s, 18° | 42 W/m² | - |
| 1778029314 | 7.78° C | 41% | 1020.2 hPa | 0 mm | 0.45 m/s, 98° | 43 W/m² | - |
| 1778029011 | 7.78° C | 40% | 1020 hPa | 0 mm | 3.13 m/s, 59° | 51 W/m² | - |
| 1778028708 | 7.78° C | 41% | 1019.9 hPa | 0 mm | 1.79 m/s, 83° | 61 W/m² | - |
| 1778028404 | 7.78° C | 41% | 1019.8 hPa | 0 mm | 1.79 m/s, 87° | 65 W/m² | - |
| 1778028101 | 7.78° C | 38% | 1020 hPa | 0 mm | 2.24 m/s, 24° | 89 W/m² | - |
| 1778027797 | 7.78° C | 43% | 1019.8 hPa | 0 mm | 2.68 m/s, 12° | 78 W/m² | - |
| 1778027494 | 8.89° C | 41% | 1020.2 hPa | 0 mm | 2.24 m/s, 15° | 109 W/m² | - |
| 1778027190 | 8.89° C | 39% | 1019.7 hPa | 0 mm | 2.24 m/s, 330° | 171 W/m² | - |
| 1778026886 | 8.89° C | 38% | 1019.6 hPa | 0 mm | 3.58 m/s, 9° | 199 W/m² | - |
| 1778026582 | 8.89° C | 40% | 1019.6 hPa | 0 mm | 4.02 m/s, 4° | 169 W/m² | - |
| 1778026279 | 9.44° C | 37% | 1019.7 hPa | 0 mm | 4.92 m/s, 337° | 308 W/m² | - |
| 1778025977 | 8.89° C | 37% | 1019.6 hPa | 0 mm | 3.13 m/s, 35° | 189 W/m² | - |
* Rain latest hour (hover to see other rain measurements)
** Current wind speed in m/s (hover to see current wind gust speed)